Главная страница
METAR-TAF:

METAR-TAF

Аэропорты :

Гран-Канария, Испания

широта: 27-56N, долгота: 015-23W, высота над уровнем моря: 23 м

Текущие метеонаблюдения

Эта сводка был подготовлена 35 минут назад, в 13:00 UTC
Ветер 21 Узел от северо-северо-восточный
Температура 28°C
Влажность 66%
Давление 1016 hPa
Видимость 10 км и более
небольшая облачность на высоте 6000 фута

METAR: GCLP 141300Z 02021KT 9999 FEW060 28/21 Q1016 NOSIG

Время: 14:35 (13:35 UTC)

Прогноз

Эта сводка был подготовлена 5 часа и 35 минут назад, в 08:00 UTC
Прогноз действительный с 14-го 09 UTC до 15-го 09 UTC
Ветер 18 Узел от северный
Видимость 10 км и более
Нет облачности ниже 1500 м, и нет кучево-дождевой облачности

TAF: GCLP 140800Z 1409/1509 01018KT CAVOK TX28/1414Z TN23/1505Z

Метеонаблюдения и прогнозы для более 4000 аэропортов (сводки METAR и TAF).

Имеющиеся станции представлены на карте желтыми и красными точками.

Чтобы увидеть название станции, наведите на нее мышь.

Затем щелкните, чтобы увидеть метеонаблюдения и метеопрогнозы.

Управление картой: чтобы увеличить масштаб, щелкните зеленые кнопки с черным крестиком; чтобы уменьшить масштаб, щелкните зеленую кнопку с тире; для просмотра соседних карт щелкайте зеленые стрелки.


METAR-TAF: